Time;durP1;ratioP1;P1;durP2;ratioP2;P2;SDS_P1;SDS_P2;PMS_P1;PMS_P2;Temp;Humidity;BMP_temperature;BMP_pressure;BME280_temperature;BME280_humidity;BME280_pressure;Samples;Min_cycle;Max_cycle;Signal;HPM_P1;HPM_P2
2021/12/26 00:02:18;;;;;;;326.20;130.90;;;-6.60;95.20;;;;;;5035119;28;20029;-74
2021/12/26 00:04:44;;;;;;;361.02;140.38;;;-6.70;95.30;;;;;;5035052;28;20029;-74
2021/12/26 00:07:09;;;;;;;376.50;147.80;;;-6.70;95.40;;;;;;5034785;28;20026;-75
2021/12/26 00:09:35;;;;;;;362.05;148.48;;;-6.70;95.40;;;;;;5035073;28;20025;-74
2021/12/26 00:12:01;;;;;;;408.83;164.32;;;-6.70;95.40;;;;;;5034979;28;20529;-75
2021/12/26 00:14:27;;;;;;;461.88;185.68;;;-6.70;95.30;;;;;;5034832;28;20083;-74
2021/12/26 00:16:52;;;;;;;449.73;177.45;;;-6.70;95.30;;;;;;5034770;28;20030;-74
2021/12/26 00:19:18;;;;;;;419.92;174.82;;;-6.70;95.20;;;;;;5017240;28;20056;-73
2021/12/26 00:21:44;;;;;;;411.02;163.18;;;-6.70;95.10;;;;;;5016737;28;20068;-74
2021/12/26 00:24:09;;;;;;;395.90;147.35;;;-6.70;95.00;;;;;;5033897;28;20021;-77
2021/12/26 00:26:37;;;;;;;384.02;143.57;;;-6.80;95.10;;;;;;5016490;28;20025;-73
2021/12/26 00:29:03;;;;;;;394.60;151.38;;;-6.80;95.10;;;;;;5034639;28;20030;-74
2021/12/26 00:31:29;;;;;;;374.23;151.27;;;-6.80;95.10;;;;;;5034518;28;20021;-73
2021/12/26 00:33:55;;;;;;;445.85;171.10;;;-6.80;95.40;;;;;;5034391;28;20029;-74
2021/12/26 00:36:21;;;;;;;434.00;167.45;;;-6.80;95.00;;;;;;5035059;28;20468;-73
2021/12/26 00:38:47;;;;;;;464.13;187.60;;;-6.80;94.90;;;;;;5034824;28;20528;-73
2021/12/26 00:41:12;;;;;;;339.63;135.85;;;-6.80;94.80;;;;;;5016559;28;20493;-73
2021/12/26 00:43:38;;;;;;;414.13;158.73;;;-6.90;94.80;;;;;;5034302;28;20026;-74
2021/12/26 00:46:04;;;;;;;459.65;170.82;;;-6.90;94.80;;;;;;5016506;28;20067;-74
2021/12/26 00:48:30;;;;;;;431.35;167.82;;;-6.90;94.80;;;;;;5034286;28;20024;-74
2021/12/26 00:50:55;;;;;;;369.70;140.70;;;-6.90;94.80;;;;;;5034345;28;20079;-74
2021/12/26 00:53:22;;;;;;;430.25;167.70;;;-6.90;94.70;;;;;;5016386;28;20072;-74
2021/12/26 00:55:48;;;;;;;408.30;151.00;;;-6.90;95.10;;;;;;5034442;28;20117;-73
2021/12/26 00:58:14;;;;;;;389.35;144.27;;;-6.90;94.70;;;;;;5034142;28;20029;-73
2021/12/26 01:00:42;;;;;;;409.33;150.07;;;-6.90;94.70;;;;;;5034126;28;20481;-73
2021/12/26 01:03:10;;;;;;;416.80;154.18;;;-6.90;94.60;;;;;;5033956;28;20184;-74
2021/12/26 01:05:38;;;;;;;400.20;146.05;;;-7.00;94.30;;;;;;5016045;28;20057;-74
2021/12/26 01:08:05;;;;;;;372.95;131.07;;;-7.00;94.20;;;;;;5033613;28;20498;-74
2021/12/26 01:10:41;;;;;;;346.52;126.93;;;-7.00;94.10;;;;;;5033810;28;20112;-74
2021/12/26 01:13:33;;;;;;;373.58;134.02;;;-7.00;94.10;;;;;;5033536;28;20013;-74
2021/12/26 01:15:59;;;;;;;304.30;114.53;;;-7.10;94.10;;;;;;5032932;28;20450;-75
2021/12/26 01:18:28;;;;;;;369.55;126.47;;;-7.10;94.20;;;;;;5015904;28;20202;-74
2021/12/26 01:21:04;;;;;;;335.55;123.60;;;-7.10;94.20;;;;;;5015634;28;20029;-72
2021/12/26 01:23:31;;;;;;;306.70;119.32;;;-7.10;94.10;;;;;;5033253;28;20021;-75
2021/12/26 01:25:58;;;;;;;306.98;116.25;;;-7.10;93.80;;;;;;5033415;28;20034;-75
2021/12/26 01:28:28;;;;;;;285.02;113.07;;;-7.20;93.60;;;;;;5015685;28;20021;-75
2021/12/26 01:30:56;;;;;;;293.50;111.82;;;-7.20;93.50;;;;;;5033273;28;20063;-73
2021/12/26 01:33:22;;;;;;;288.83;112.93;;;-7.20;93.50;;;;;;5033349;28;20472;-75
2021/12/26 01:35:48;;;;;;;307.92;114.15;;;-7.30;93.60;;;;;;5033448;28;20048;-74
2021/12/26 01:38:16;;;;;;;271.88;106.20;;;-7.30;93.70;;;;;;5033235;28;20091;-73
2021/12/26 01:40:47;;;;;;;230.20;88.78;;;-7.30;93.90;;;;;;5015585;28;20068;-73
2021/12/26 01:43:14;;;;;;;226.27;88.82;;;-7.30;94.10;;;;;;5033369;28;20347;-74
2021/12/26 01:45:41;;;;;;;266.15;105.63;;;-7.20;94.30;;;;;;5033289;28;20030;-75
2021/12/26 01:48:07;;;;;;;283.27;105.93;;;-7.30;94.20;;;;;;5033502;28;20023;-74
2021/12/26 01:50:34;;;;;;;218.80;82.78;;;-7.30;94.10;;;;;;5033182;28;20449;-74
2021/12/26 01:53:00;;;;;;;239.55;95.97;;;-7.30;94.00;;;;;;5033437;28;20025;-75
2021/12/26 01:55:38;;;;;;;218.52;76.68;;;-7.30;94.20;;;;;;5033103;28;20044;-74
2021/12/26 01:58:06;;;;;;;199.23;72.53;;;-7.30;94.20;;;;;;5033315;28;20049;-73
2021/12/26 02:00:33;;;;;;;198.48;76.07;;;-7.30;94.40;;;;;;5015388;28;20033;-74
2021/12/26 02:02:59;;;;;;;251.27;91.93;;;-7.30;94.50;;;;;;5033136;28;20018;-74
2021/12/26 02:05:24;;;;;;;266.50;99.75;;;-7.30;94.60;;;;;;5015264;28;20022;-74
2021/12/26 02:07:50;;;;;;;264.92;102.82;;;-7.30;94.40;;;;;;5032875;28;20046;-74
2021/12/26 02:10:16;;;;;;;262.38;102.57;;;-7.30;94.10;;;;;;5033233;28;20018;-73
2021/12/26 02:12:42;;;;;;;242.65;100.07;;;-7.40;93.70;;;;;;5033106;28;20104;-74
2021/12/26 02:15:08;;;;;;;260.85;100.05;;;-7.40;93.50;;;;;;5032934;28;20344;-73
2021/12/26 02:17:34;;;;;;;277.75;97.95;;;-7.50;93.30;;;;;;5033086;28;20018;-74
2021/12/26 02:20:20;;;;;;;256.92;96.18;;;-7.50;93.20;;;;;;5015270;28;20386;-74
2021/12/26 02:22:52;;;;;;;260.35;93.82;;;-7.50;93.30;;;;;;5033278;28;20486;-72
2021/12/26 02:27:55;;;;;;;253.07;100.03;;;-7.60;93.20;;;;;;5035274;28;19932;-73
2021/12/26 02:30:22;;;;;;;254.25;97.65;;;-7.60;93.30;;;;;;5037312;28;20071;-74
2021/12/26 02:32:49;;;;;;;245.32;96.53;;;-7.60;93.40;;;;;;5037281;28;20100;-74
2021/12/26 02:35:17;;;;;;;246.00;96.75;;;-7.60;93.50;;;;;;5037182;28;20026;-73
2021/12/26 02:37:43;;;;;;;243.00;95.05;;;-7.70;93.60;;;;;;5032884;28;20021;-73
2021/12/26 02:40:10;;;;;;;263.73;97.10;;;-7.70;93.60;;;;;;5033156;28;20022;-74
2021/12/26 02:42:35;;;;;;;229.50;92.43;;;-7.70;93.80;;;;;;5032571;28;20036;-73
2021/12/26 02:45:01;;;;;;;220.77;88.75;;;-7.60;93.90;;;;;;5014892;28;20030;-74
2021/12/26 02:47:53;;;;;;;232.57;86.53;;;-7.60;93.90;;;;;;5032750;28;20072;-74
2021/12/26 02:50:25;;;;;;;215.23;83.53;;;-7.60;94.10;;;;;;5014925;28;20029;-73
2021/12/26 02:52:53;;;;;;;216.75;80.68;;;-7.60;94.40;;;;;;5018563;28;20516;-73
2021/12/26 02:55:20;;;;;;;223.63;81.72;;;-7.60;94.70;;;;;;5018640;28;20467;-73
2021/12/26 02:57:55;;;;;;;217.57;87.10;;;-7.60;94.80;;;;;;5036343;28;20450;-73
2021/12/26 03:00:26;;;;;;;217.80;83.07;;;-7.50;94.90;;;;;;5036174;28;20557;-74
2021/12/26 03:02:55;;;;;;;229.90;85.95;;;-7.50;95.00;;;;;;5036301;28;20108;-73
2021/12/26 03:05:23;;;;;;;208.68;79.57;;;-7.60;95.10;;;;;;5018301;28;20121;-73
2021/12/26 03:07:49;;;;;;;202.68;80.35;;;-7.50;95.20;;;;;;5036120;28;20045;-73
2021/12/26 03:10:21;;;;;;;205.15;79.03;;;-7.50;95.30;;;;;;5036134;28;20493;-74
2021/12/26 03:12:53;;;;;;;212.40;82.82;;;-7.50;95.40;;;;;;5018175;28;20063;-74
2021/12/26 03:15:19;;;;;;;234.05;87.80;;;-7.50;95.40;;;;;;5035975;28;20029;-73
2021/12/26 03:17:45;;;;;;;220.68;86.00;;;-7.50;95.30;;;;;;5036038;28;20029;-74
2021/12/26 03:20:13;;;;;;;227.25;90.72;;;-7.50;94.90;;;;;;5018195;28;20479;-74
2021/12/26 03:22:40;;;;;;;249.52;98.78;;;-7.50;94.50;;;;;;5018183;28;20063;-74
2021/12/26 03:25:10;;;;;;;269.77;101.65;;;-7.60;94.50;;;;;;5018071;28;20108;-74
2021/12/26 03:27:36;;;;;;;261.85;100.72;;;-7.60;94.10;;;;;;5035520;28;20017;-74
2021/12/26 03:30:04;;;;;;;247.55;96.68;;;-7.60;94.00;;;;;;5017849;28;20029;-74
2021/12/26 03:32:30;;;;;;;253.38;96.53;;;-7.70;93.90;;;;;;5035519;28;20202;-74
2021/12/26 03:34:56;;;;;;;236.20;91.97;;;-7.70;94.00;;;;;;5035660;28;20459;-74
2021/12/26 03:37:23;;;;;;;251.48;100.65;;;-7.60;94.10;;;;;;5035614;28;20356;-74
2021/12/26 03:39:49;;;;;;;314.83;112.90;;;-7.70;94.00;;;;;;5035586;28;20525;-75
2021/12/26 03:42:15;;;;;;;304.42;109.63;;;-7.70;93.90;;;;;;5035271;28;20072;-74
2021/12/26 03:44:41;;;;;;;255.60;98.95;;;-7.70;93.80;;;;;;5017540;28;20025;-74
2021/12/26 03:47:06;;;;;;;251.38;98.65;;;-7.70;93.60;;;;;;5035643;28;20025;-75
2021/12/26 03:49:33;;;;;;;253.25;103.32;;;-7.80;93.60;;;;;;5035221;28;20479;-75
2021/12/26 03:51:58;;;;;;;232.43;95.38;;;-7.80;93.60;;;;;;5035216;28;20111;-75
2021/12/26 03:54:24;;;;;;;226.18;91.97;;;-7.80;93.50;;;;;;5035212;28;20470;-74
2021/12/26 03:56:50;;;;;;;216.40;81.75;;;-7.80;93.30;;;;;;5035083;28;20040;-74
2021/12/26 03:59:15;;;;;;;230.15;83.80;;;-7.90;93.10;;;;;;5034356;28;20108;-74
2021/12/26 04:01:41;;;;;;;213.40;82.60;;;-7.90;93.00;;;;;;5034831;28;20060;-74
2021/12/26 04:04:07;;;;;;;204.93;80.43;;;-7.90;92.90;;;;;;5035059;28;20032;-74
2021/12/26 04:06:33;;;;;;;195.27;76.32;;;-8.00;92.80;;;;;;5034877;28;20021;-74
2021/12/26 04:08:58;;;;;;;186.27;75.53;;;-8.00;92.80;;;;;;5034864;28;20046;-76
2021/12/26 04:11:24;;;;;;;206.35;77.10;;;-8.10;92.70;;;;;;5034697;28;20025;-74
2021/12/26 04:13:50;;;;;;;175.48;71.30;;;-8.10;92.70;;;;;;5017234;28;20044;-75
2021/12/26 04:16:16;;;;;;;186.55;73.00;;;-8.10;92.70;;;;;;5034888;28;20087;-74
2021/12/26 04:18:42;;;;;;;186.68;68.80;;;-8.10;92.70;;;;;;5016915;28;20017;-74
2021/12/26 04:21:08;;;;;;;168.63;64.82;;;-8.10;92.60;;;;;;5034673;28;20444;-75
2021/12/26 04:23:34;;;;;;;168.10;63.65;;;-8.20;92.60;;;;;;5034782;28;20017;-75
2021/12/26 04:26:00;;;;;;;177.35;68.25;;;-8.20;92.50;;;;;;5034370;28;20029;-74
2021/12/26 04:28:27;;;;;;;165.75;63.55;;;-8.30;92.50;;;;;;5034553;28;20021;-75
2021/12/26 04:30:53;;;;;;;186.10;72.82;;;-8.30;92.60;;;;;;5016795;28;20026;-74
2021/12/26 04:33:20;;;;;;;180.63;69.70;;;-8.30;92.60;;;;;;5034644;28;20471;-75
2021/12/26 04:35:46;;;;;;;185.40;69.13;;;-8.30;92.70;;;;;;5034592;28;20057;-73
2021/12/26 04:38:12;;;;;;;171.13;68.03;;;-8.30;93.30;;;;;;5034416;28;20079;-74
2021/12/26 04:40:37;;;;;;;184.05;71.22;;;-8.20;93.30;;;;;;5034134;28;20029;-75
2021/12/26 04:43:03;;;;;;;193.40;69.55;;;-8.20;93.40;;;;;;5034657;28;20029;-75
2021/12/26 04:45:29;;;;;;;169.82;66.07;;;-8.20;93.50;;;;;;5016447;28;20067;-74
2021/12/26 04:47:55;;;;;;;165.27;64.95;;;-8.20;93.40;;;;;;5034192;28;20022;-75
2021/12/26 04:50:23;;;;;;;176.00;64.18;;;-8.10;93.60;;;;;;5034205;28;20025;-73
2021/12/26 04:52:50;;;;;;;180.57;63.58;;;-8.10;93.70;;;;;;5034315;28;20048;-74
2021/12/26 04:55:20;;;;;;;148.82;62.00;;;-8.10;93.70;;;;;;5034260;28;20036;-74
2021/12/26 04:57:46;;;;;;;167.50;63.92;;;-8.10;93.60;;;;;;5034144;28;20079;-73
2021/12/26 05:00:15;;;;;;;169.63;63.20;;;-8.20;93.70;;;;;;5033901;28;20029;-75
2021/12/26 05:02:42;;;;;;;163.82;63.40;;;-8.20;93.60;;;;;;5016700;28;20025;-74
2021/12/26 05:05:09;;;;;;;158.68;58.92;;;-8.20;93.60;;;;;;5016129;28;20113;-73
2021/12/26 05:07:35;;;;;;;163.77;59.30;;;-8.20;93.60;;;;;;5033465;28;20096;-74
2021/12/26 05:10:02;;;;;;;167.15;59.97;;;-8.20;93.50;;;;;;5033841;28;20348;-74
2021/12/26 05:12:27;;;;;;;155.15;62.05;;;-8.20;93.60;;;;;;5033432;28;20049;-74
2021/12/26 05:14:53;;;;;;;170.85;62.72;;;-8.20;93.80;;;;;;5015926;28;20076;-74
2021/12/26 05:17:19;;;;;;;161.13;61.13;;;-8.20;94.00;;;;;;5033737;28;20026;-74
2021/12/26 05:19:44;;;;;;;144.05;56.85;;;-8.20;94.00;;;;;;5033564;28;20124;-74
2021/12/26 05:22:10;;;;;;;160.05;61.92;;;-8.20;94.00;;;;;;5016097;28;20112;-74
2021/12/26 05:24:36;;;;;;;161.13;57.75;;;-8.20;94.00;;;;;;5033461;28;20422;-74
2021/12/26 05:27:02;;;;;;;163.93;65.60;;;-8.20;94.00;;;;;;5015776;28;20099;-74
2021/12/26 05:29:27;;;;;;;179.32;61.42;;;-8.20;94.00;;;;;;5033362;28;20049;-73
2021/12/26 05:31:53;;;;;;;169.73;63.03;;;-8.20;94.20;;;;;;5033624;28;20044;-74
2021/12/26 05:34:20;;;;;;;180.85;63.72;;;-8.20;94.10;;;;;;5033393;28;20052;-74
2021/12/26 05:36:46;;;;;;;173.20;68.10;;;-8.20;94.10;;;;;;5033497;28;20032;-73
2021/12/26 05:39:12;;;;;;;189.75;69.28;;;-8.20;93.80;;;;;;5033382;28;20029;-74
2021/12/26 05:41:39;;;;;;;188.85;70.68;;;-8.20;93.50;;;;;;5033488;28;20029;-74
2021/12/26 05:44:05;;;;;;;184.23;68.30;;;-8.20;93.20;;;;;;5016310;28;20029;-74
2021/12/26 05:46:31;;;;;;;192.93;69.93;;;-8.30;93.20;;;;;;5033334;28;20072;-74
2021/12/26 05:48:59;;;;;;;192.38;71.30;;;-8.30;93.20;;;;;;5033279;28;20029;-74
2021/12/26 05:51:25;;;;;;;206.18;76.25;;;-8.30;93.30;;;;;;5015963;28;20021;-74
2021/12/26 05:53:50;;;;;;;175.93;68.85;;;-8.30;93.40;;;;;;5033196;28;20048;-74
2021/12/26 05:56:16;;;;;;;188.30;66.90;;;-8.30;93.40;;;;;;5033210;28;20017;-74
2021/12/26 05:58:42;;;;;;;182.73;65.55;;;-8.30;93.40;;;;;;5033326;28;20029;-75
2021/12/26 06:01:07;;;;;;;196.20;68.30;;;-8.30;93.50;;;;;;5033466;28;20021;-74
2021/12/26 06:03:33;;;;;;;196.75;67.85;;;-8.30;93.60;;;;;;5015424;28;20084;-74
2021/12/26 06:05:58;;;;;;;182.05;63.20;;;-8.30;93.60;;;;;;5032955;28;20029;-74
2021/12/26 06:08:24;;;;;;;191.70;69.63;;;-8.30;93.70;;;;;;5032790;28;20132;-74
2021/12/26 06:10:50;;;;;;;196.43;67.28;;;-8.20;93.90;;;;;;5032990;28;20021;-74
2021/12/26 06:13:15;;;;;;;165.50;62.08;;;-8.30;93.90;;;;;;5033053;28;20025;-73
2021/12/26 06:15:41;;;;;;;173.77;63.50;;;-8.30;93.90;;;;;;5033163;28;20351;-73
2021/12/26 06:18:06;;;;;;;176.07;65.93;;;-8.30;94.00;;;;;;5033068;28;20033;-74
2021/12/26 06:20:32;;;;;;;172.52;66.25;;;-8.20;94.00;;;;;;5032883;28;20039;-73
2021/12/26 06:22:58;;;;;;;198.48;70.13;;;-8.20;93.80;;;;;;5033939;28;20040;-73
2021/12/26 06:25:24;;;;;;;212.93;79.55;;;-8.30;93.40;;;;;;5036991;28;20025;-74
2021/12/26 06:27:49;;;;;;;200.48;77.05;;;-8.30;93.10;;;;;;5037746;28;20100;-73
2021/12/26 06:30:15;;;;;;;202.52;73.43;;;-8.30;93.00;;;;;;5038175;28;20464;-74
2021/12/26 06:32:41;;;;;;;232.40;79.50;;;-8.40;93.00;;;;;;5023958;28;20029;-74
2021/12/26 06:35:08;;;;;;;224.85;81.78;;;-8.30;92.90;;;;;;5041581;28;20402;-75
2021/12/26 06:37:35;;;;;;;218.07;75.97;;;-8.40;93.00;;;;;;5018992;28;20029;-74
2021/12/26 06:40:01;;;;;;;244.30;85.28;;;-8.40;93.00;;;;;;5037201;28;20348;-74
2021/12/26 06:42:29;;;;;;;249.02;85.43;;;-8.40;93.10;;;;;;5036676;28;20025;-75
2021/12/26 06:44:55;;;;;;;251.00;87.15;;;-8.40;93.00;;;;;;5036621;28;20375;-74
2021/12/26 06:47:21;;;;;;;222.70;85.28;;;-8.40;92.90;;;;;;5036497;28;20022;-74
2021/12/26 06:49:47;;;;;;;221.05;79.28;;;-8.40;92.80;;;;;;5036341;28;20021;-73
2021/12/26 06:52:12;;;;;;;245.82;88.20;;;-8.50;92.40;;;;;;5018615;28;20032;-75
2021/12/26 06:54:40;;;;;;;231.90;84.25;;;-8.60;92.00;;;;;;5036488;28;20026;-74
2021/12/26 06:57:06;;;;;;;220.25;76.20;;;-8.60;91.90;;;;;;5036270;28;20032;-74
2021/12/26 06:59:32;;;;;;;184.05;70.88;;;-8.70;91.80;;;;;;5036343;28;20483;-75
2021/12/26 07:01:57;;;;;;;193.15;69.20;;;-8.70;91.70;;;;;;5036283;28;20061;-75
2021/12/26 07:04:23;;;;;;;171.77;67.25;;;-8.70;91.60;;;;;;5036234;28;20026;-74
2021/12/26 07:06:49;;;;;;;178.35;67.53;;;-8.80;91.60;;;;;;5036389;28;20028;-74
2021/12/26 07:09:14;;;;;;;184.13;66.50;;;-8.80;91.70;;;;;;5035947;28;20087;-74
2021/12/26 07:11:41;;;;;;;189.25;69.47;;;-8.80;91.90;;;;;;5002022;28;20025;-75
2021/12/26 07:14:06;;;;;;;167.25;65.05;;;-8.80;92.10;;;;;;5035882;28;20105;-74
2021/12/26 07:16:32;;;;;;;165.65;60.15;;;-8.70;92.30;;;;;;5018191;28;20124;-75
2021/12/26 07:18:58;;;;;;;163.65;62.35;;;-8.70;92.50;;;;;;5035720;28;20383;-74
2021/12/26 07:21:23;;;;;;;152.65;53.63;;;-8.70;92.50;;;;;;5036059;28;20079;-74
2021/12/26 07:23:49;;;;;;;147.75;56.00;;;-8.60;92.60;;;;;;5035848;28;20124;-74
2021/12/26 07:26:15;;;;;;;153.88;58.30;;;-8.60;92.90;;;;;;5035963;28;20033;-74
2021/12/26 07:28:40;;;;;;;169.20;58.38;;;-8.50;93.00;;;;;;5036002;28;20032;-74
2021/12/26 07:31:06;;;;;;;157.85;62.33;;;-8.50;93.10;;;;;;5017877;28;20025;-75
2021/12/26 07:33:31;;;;;;;137.43;56.85;;;-8.40;93.20;;;;;;5035453;28;20024;-74
2021/12/26 07:35:57;;;;;;;172.32;59.47;;;-8.40;93.30;;;;;;5001516;28;20060;-74
2021/12/26 07:38:23;;;;;;;147.65;54.40;;;-8.40;93.10;;;;;;5035478;28;20417;-74
2021/12/26 07:40:48;;;;;;;198.65;70.20;;;-8.40;92.90;;;;;;5035426;28;20026;-73
2021/12/26 07:43:14;;;;;;;200.95;79.03;;;-8.40;92.90;;;;;;5035637;28;20021;-75
2021/12/26 07:45:41;;;;;;;237.35;88.82;;;-8.40;92.90;;;;;;5035372;28;20037;-74
2021/12/26 07:48:06;;;;;;;208.00;75.05;;;-8.30;93.00;;;;;;5017785;28;20025;-74
2021/12/26 07:50:33;;;;;;;204.95;79.20;;;-8.30;92.90;;;;;;5035510;28;20017;-74
2021/12/26 07:53:04;;;;;;;229.35;85.30;;;-8.30;92.60;;;;;;5035251;28;20053;-74
2021/12/26 07:55:30;;;;;;;203.82;81.95;;;-8.30;92.40;;;;;;5035207;28;20029;-75
2021/12/26 07:57:56;;;;;;;199.15;77.03;;;-8.30;92.30;;;;;;5017473;28;20022;-74
2021/12/26 08:00:22;;;;;;;183.15;72.03;;;-8.20;92.50;;;;;;5035160;28;20053;-74
2021/12/26 08:02:48;;;;;;;188.10;68.85;;;-8.20;92.70;;;;;;5035024;28;20037;-75
2021/12/26 08:05:15;;;;;;;175.88;65.82;;;-8.10;92.80;;;;;;5035111;28;20025;-73
2021/12/26 08:07:42;;;;;;;180.00;64.78;;;-8.00;92.90;;;;;;5034766;28;20112;-75
2021/12/26 08:10:08;;;;;;;169.70;60.55;;;-8.00;92.90;;;;;;5034956;28;20055;-74
2021/12/26 08:12:34;;;;;;;157.02;58.08;;;-7.90;92.90;;;;;;5035108;28;20080;-74
2021/12/26 08:15:01;;;;;;;140.52;54.40;;;-7.90;92.90;;;;;;5017109;28;20025;-74
2021/12/26 08:17:31;;;;;;;159.93;56.63;;;-7.80;92.90;;;;;;5017084;28;20484;-73
2021/12/26 08:19:57;;;;;;;168.73;62.00;;;-7.80;93.00;;;;;;5016984;28;20018;-75
2021/12/26 08:22:24;;;;;;;159.07;59.55;;;-7.70;93.20;;;;;;5034707;28;20118;-75
2021/12/26 08:24:49;;;;;;;179.73;65.18;;;-7.60;93.40;;;;;;5034735;28;20029;-75
2021/12/26 08:27:15;;;;;;;188.40;65.63;;;-7.50;93.50;;;;;;5034623;28;20421;-74
2021/12/26 08:29:41;;;;;;;178.50;65.65;;;-7.40;93.50;;;;;;5034569;28;20117;-74
2021/12/26 08:32:11;;;;;;;176.48;62.58;;;-7.30;93.50;;;;;;5016929;28;20017;-74
2021/12/26 08:34:37;;;;;;;186.50;69.43;;;-7.20;93.50;;;;;;5016847;28;20151;-75
2021/12/26 08:37:04;;;;;;;190.35;67.78;;;-7.10;93.80;;;;;;5034767;28;20096;-74
2021/12/26 08:39:33;;;;;;;193.35;68.57;;;-6.90;94.30;;;;;;5016825;28;20025;-73
2021/12/26 08:41:59;;;;;;;171.38;61.90;;;-6.70;94.80;;;;;;5016681;28;20103;-74
2021/12/26 08:44:25;;;;;;;192.50;68.45;;;-6.50;94.50;;;;;;5034117;28;20471;-75
2021/12/26 08:46:52;;;;;;;191.88;68.00;;;-6.30;94.40;;;;;;4999723;28;20064;-75
2021/12/26 08:49:18;;;;;;;184.30;67.95;;;-6.20;93.80;;;;;;5034147;28;20026;-74
2021/12/26 08:51:44;;;;;;;194.45;70.03;;;-6.00;93.70;;;;;;5034194;28;20041;-74
2021/12/26 08:54:11;;;;;;;172.48;63.97;;;-5.90;93.60;;;;;;5016547;28;20116;-73
2021/12/26 08:56:38;;;;;;;181.75;65.82;;;-5.70;93.40;;;;;;5034585;28;20053;-73
2021/12/26 08:59:04;;;;;;;165.05;61.53;;;-5.60;93.40;;;;;;5016572;28;20036;-74
2021/12/26 09:01:29;;;;;;;182.07;66.53;;;-5.40;93.90;;;;;;5034075;28;20029;-72
2021/12/26 09:03:55;;;;;;;176.93;68.18;;;-5.20;94.00;;;;;;5033917;28;20026;-74
2021/12/26 09:06:21;;;;;;;168.00;65.50;;;-5.00;93.40;;;;;;5034230;28;20032;-73
2021/12/26 09:08:47;;;;;;;166.05;62.13;;;-4.80;93.30;;;;;;5034217;28;20049;-73
2021/12/26 09:11:13;;;;;;;186.70;61.38;;;-4.60;93.30;;;;;;5016296;28;20117;-73
2021/12/26 09:13:39;;;;;;;173.20;64.25;;;-4.50;93.40;;;;;;5033665;28;20446;-74
2021/12/26 09:16:05;;;;;;;173.88;61.58;;;-4.30;92.60;;;;;;5015952;28;20073;-72
2021/12/26 09:18:30;;;;;;;134.52;55.70;;;-4.20;93.10;;;;;;5016248;28;20033;-72
2021/12/26 09:20:56;;;;;;;118.82;52.17;;;-3.90;93.90;;;;;;5033793;28;20021;-72
2021/12/26 09:23:22;;;;;;;123.32;46.85;;;-3.70;93.80;;;;;;5033767;28;20064;-74
2021/12/26 09:25:48;;;;;;;110.57;43.00;;;-3.50;93.30;;;;;;5015967;28;20092;-74
2021/12/26 09:28:13;;;;;;;102.60;39.70;;;-3.30;92.60;;;;;;5015749;28;20501;-74
2021/12/26 09:30:40;;;;;;;100.15;36.78;;;-3.10;92.80;;;;;;5033614;28;20032;-75
2021/12/26 09:33:05;;;;;;;89.30;40.92;;;-2.90;91.90;;;;;;5033526;28;20390;-73
2021/12/26 09:35:32;;;;;;;104.90;38.70;;;-2.80;91.10;;;;;;5033565;28;20037;-74
2021/12/26 09:37:57;;;;;;;97.53;40.05;;;-2.70;90.50;;;;;;5033557;28;20029;-73
2021/12/26 09:40:23;;;;;;;111.63;41.28;;;-2.60;90.20;;;;;;5033563;28;20025;-74
2021/12/26 09:42:49;;;;;;;104.28;42.78;;;-2.50;90.30;;;;;;5033107;28;20025;-75
2021/12/26 09:45:16;;;;;;;105.55;40.65;;;-2.40;89.30;;;;;;5033244;28;20140;-73
2021/12/26 09:47:42;;;;;;;92.85;37.72;;;-2.40;88.80;;;;;;5015642;28;20029;-74
2021/12/26 09:50:11;;;;;;;99.40;39.95;;;-2.30;88.20;;;;;;5033231;28;20101;-74
2021/12/26 09:52:41;;;;;;;92.70;37.40;;;-2.20;87.60;;;;;;5033591;28;20407;-73
2021/12/26 09:55:07;;;;;;;95.32;39.78;;;-2.20;87.10;;;;;;5033251;28;20032;-73
2021/12/26 09:57:33;;;;;;;98.57;39.33;;;-2.10;87.00;;;;;;5035201;28;20033;-74
2021/12/26 09:59:58;;;;;;;107.95;39.22;;;-2.00;86.60;;;;;;5037617;28;20021;-73
2021/12/26 10:02:24;;;;;;;89.72;36.80;;;-2.00;86.00;;;;;;5037657;28;20037;-73
2021/12/26 10:04:51;;;;;;;93.10;38.15;;;-1.90;85.20;;;;;;5037450;28;20037;-74
2021/12/26 10:07:21;;;;;;;100.93;38.15;;;-1.90;84.70;;;;;;5037069;28;20476;-73
2021/12/26 10:09:49;;;;;;;93.60;40.75;;;-1.80;84.20;;;;;;5037153;28;20026;-74
2021/12/26 10:12:17;;;;;;;93.25;38.70;;;-1.80;84.80;;;;;;5037574;28;20030;-73
2021/12/26 10:14:48;;;;;;;96.95;38.90;;;-1.70;84.80;;;;;;5037218;28;20109;-74
2021/12/26 10:17:19;;;;;;;87.00;37.33;;;-1.60;84.50;;;;;;5037132;28;20030;-75
2021/12/26 10:19:46;;;;;;;101.57;38.42;;;-1.50;83.80;;;;;;5019556;28;20029;-75
2021/12/26 10:22:14;;;;;;;92.35;37.20;;;-1.50;83.20;;;;;;5037184;28;20542;-73
2021/12/26 10:24:42;;;;;;;90.38;36.95;;;-1.40;82.50;;;;;;5036926;28;20478;-74
2021/12/26 10:27:19;;;;;;;85.28;36.50;;;-1.30;82.00;;;;;;5021044;28;20067;-73
2021/12/26 10:29:54;;;;;;;93.20;35.92;;;-1.30;81.30;;;;;;5041608;28;20063;-74
2021/12/26 10:32:29;;;;;;;91.50;34.33;;;-1.30;81.80;;;;;;5041749;28;20026;-72
2021/12/26 10:35:08;;;;;;;87.28;38.72;;;-1.30;82.00;;;;;;5023644;28;20025;-73
2021/12/26 10:37:40;;;;;;;88.75;35.85;;;-1.30;82.80;;;;;;5019571;28;20025;-74
2021/12/26 10:40:15;;;;;;;84.75;33.70;;;-1.20;83.10;;;;;;5036668;28;20479;-74
2021/12/26 10:42:52;;;;;;;75.72;33.45;;;-1.20;82.40;;;;;;5036822;28;20029;-74
2021/12/26 10:45:20;;;;;;;92.82;36.20;;;-1.10;81.50;;;;;;5018773;28;20056;-73
2021/12/26 10:47:53;;;;;;;94.00;33.67;;;-1.10;80.90;;;;;;5036604;28;20028;-74
2021/12/26 10:50:21;;;;;;;70.47;32.45;;;-1.10;81.10;;;;;;5036617;28;20022;-73
2021/12/26 10:53:06;;;;;;;77.20;31.33;;;-1.10;82.10;;;;;;5036442;28;20026;-75
2021/12/26 10:55:51;;;;;;;70.45;25.90;;;-1.10;81.10;;;;;;5036324;28;20121;-74
2021/12/26 10:58:20;;;;;;;61.63;27.33;;;-1.10;80.40;;;;;;5019377;28;20489;-73
2021/12/26 11:00:48;;;;;;;66.78;29.20;;;-1.10;80.60;;;;;;5036365;28;20018;-74
2021/12/26 11:03:22;;;;;;;60.88;27.58;;;-1.10;80.70;;;;;;5036597;28;20026;-74
2021/12/26 11:05:50;;;;;;;56.80;25.33;;;-1.10;80.70;;;;;;5036229;28;20459;-72
2021/12/26 11:08:41;;;;;;;54.13;24.52;;;-1.20;81.10;;;;;;5035816;28;20045;-75
2021/12/26 11:11:16;;;;;;;63.80;24.40;;;-1.20;80.30;;;;;;5018442;28;20041;-74
2021/12/26 11:13:42;;;;;;;57.97;25.50;;;-1.30;79.90;;;;;;5036251;28;20025;-73
2021/12/26 11:16:09;;;;;;;61.75;24.27;;;-1.30;80.50;;;;;;5036089;28;20374;-74
2021/12/26 11:18:39;;;;;;;54.97;22.35;;;-1.40;80.40;;;;;;5035740;28;20155;-73
2021/12/26 11:21:11;;;;;;;49.85;21.40;;;-1.40;80.40;;;;;;5036030;28;20022;-74
2021/12/26 11:23:38;;;;;;;61.50;23.90;;;-1.40;80.30;;;;;;5035947;28;20053;-74
2021/12/26 11:26:10;;;;;;;58.78;23.50;;;-1.50;80.40;;;;;;5018105;28;20013;-74
2021/12/26 11:28:40;;;;;;;58.35;25.95;;;-1.50;80.80;;;;;;5018090;28;20025;-74
2021/12/26 11:31:14;;;;;;;55.85;24.20;;;-1.40;80.60;;;;;;5035600;28;20029;-74
2021/12/26 11:33:40;;;;;;;55.33;23.85;;;-1.40;80.90;;;;;;5035829;28;20049;-74
2021/12/26 11:36:09;;;;;;;49.83;23.30;;;-1.40;81.00;;;;;;5035823;28;20506;-74
2021/12/26 11:38:36;;;;;;;51.55;22.40;;;-1.40;80.30;;;;;;5035476;28;20034;-73
2021/12/26 11:41:08;;;;;;;54.72;23.95;;;-1.40;80.10;;;;;;5035549;28;20080;-74
2021/12/26 11:43:51;;;;;;;;;;;-1.40;80.10;;;;;;5035826;28;20040;-74
2021/12/26 11:46:31;;;;;;;45.13;19.17;;;-1.50;79.50;;;;;;5017732;28;20408;-74
2021/12/26 11:49:19;;;;;;;56.03;22.23;;;-1.50;79.30;;;;;;5035684;28;20047;-74
2021/12/26 11:52:10;;;;;;;56.13;21.98;;;-1.50;79.20;;;;;;5017426;28;20463;-73
2021/12/26 11:54:57;;;;;;;59.53;25.13;;;-1.60;79.90;;;;;;5035265;28;20025;-73
2021/12/26 11:57:49;;;;;;;67.03;30.98;;;-1.60;80.30;;;;;;5035563;28;20036;-73
2021/12/26 12:00:29;;;;;;;76.13;32.35;;;-1.50;81.30;;;;;;5035108;28;20158;-73
2021/12/26 12:02:58;;;;;;;87.63;36.28;;;-1.50;81.50;;;;;;5035287;28;20029;-74
2021/12/26 12:05:38;;;;;;;91.82;38.55;;;-1.50;81.00;;;;;;5035116;28;20367;-74
2021/12/26 12:08:09;;;;;;;78.40;32.40;;;-1.60;81.20;;;;;;5009948;28;20038;-73
2021/12/26 12:10:47;;;;;;;76.13;32.22;;;-1.60;81.20;;;;;;4997497;28;20081;-75
2021/12/26 12:13:22;;;;;;;82.50;34.75;;;-1.50;81.50;;;;;;4997499;28;20026;-73
2021/12/26 12:15:48;;;;;;;83.72;36.42;;;-1.50;81.10;;;;;;5015462;28;20033;-74
2021/12/26 12:18:32;;;;;;;70.22;28.77;;;-1.50;81.30;;;;;;5015218;28;20034;-73
2021/12/26 12:21:12;;;;;;;73.60;31.70;;;-1.50;80.90;;;;;;5013936;28;20053;-72
2021/12/26 12:23:56;;;;;;;68.35;31.80;;;-1.40;80.70;;;;;;5015254;28;20034;-73
2021/12/26 12:26:36;;;;;;;78.70;33.65;;;-1.40;81.10;;;;;;5015239;28;20106;-75